Terminal Aerodrome Forecast
Issued by NWS Twin Cities, MN

Home | Current Version | Previous Version | Graphics & Text | Print | Product List | Glossary On
Versions: 1 2 3 4 5 6 7 8 9 10 11 12 13 14 15 16
000
FTUS43 KMPX 281720
TAFSTC
TAF
KSTC 281720Z 2818/0118 19010G16KT P6SM SCT200
     FM282200 18011G17KT P6SM SCT040 BKN100
     FM010100 19009KT P6SM BKN030 OVC050
     FM010900 25006KT P6SM SCT030 BKN100
     FM011200 26008KT P6SM BKN150=

USA.gov is the U.S. government's official web portal to all federal, state and local government web resources and services.